Flight Track Log - Related Links

Times and Time Zones

All times are in EDT time to prevent confusion due to time zone crossing. See the C-FTOH flight status page for this flight to view local times or setup timezone preferences in your user account.

Time Position Orientation Groundspeed Altitude Reporting Facility
EDT Latitude Longitude Course Direction KTS MPH feet Rate Location/Type
Mon 09:55:37 PM 46.7990 -71.3830 44° Northeast 159 183 400  Level FlightAware ADS-B
Mon 09:56:02 PM 46.8120 -71.3660 42° Northeast 169 194 1,400 1,745 Climbing FlightAware ADS-B
Mon 09:56:32 PM 46.8330 -71.3400 40° Northeast 219 252 2,000 2,000 Climbing FlightAware ADS-B
Mon 09:57:02 PM 46.8570 -71.3110 40° Northeast 235 270 3,400 2,200 Climbing FlightAware ADS-B
Mon 09:57:32 PM 46.8850 -71.2770 40° Northeast 284 327 4,200 1,950 Climbing FlightAware ADS-B
Mon 09:57:42 PM 46.8970 -71.2690 24° Northeast 289 333 4,700 3,840 Climbing FlightAware ADS-B
Mon 09:57:57 PM 46.9160 -71.2640 10° North 275 316 5,800 3,800 Climbing FlightAware ADS-B
Mon 09:58:42 PM 46.9710 -71.2630 North 271 312 8,500 3,343 Climbing FlightAware ADS-B
Mon 09:59:07 PM 47.0030 -71.2640 359° North 280 322 9,700 2,486 Climbing FlightAware ADS-B
Mon 09:59:52 PM 47.0640 -71.2640 360° North 305 351 11,400 2,682 Climbing FlightAware ADS-B
Mon 10:00:32 PM 47.1200 -71.2650 359° North 304 350 13,500 3,225 Climbing FlightAware ADS-B
Mon 10:01:12 PM 47.1770 -71.2650 360° North 308 354 15,700 2,560 Climbing FlightAware ADS-B
Mon 10:01:47 PM 47.2260 -71.2650 360° North 311 358 16,700 706 Climbing FlightAware ADS-B
Mon 10:02:37 PM 47.2980 -71.2660 359° North 310 357 16,700  Level FlightAware ADS-B
Mon 10:03:22 PM 47.3620 -71.2670 359° North 311 358 16,700  Level FlightAware ADS-B
Mon 10:04:02 PM 47.4200 -71.2690 359° North 312 359 16,700 -150 Level FlightAware ADS-B
Mon 10:04:42 PM 47.4760 -71.2700 359° North 305 351 16,500 -706 Descending FlightAware ADS-B
Mon 10:05:27 PM 47.5360 -71.2720 359° North 291 335 15,700 -1,059 Descending FlightAware ADS-B
Mon 10:06:07 PM 47.5910 -71.2740 359° North 283 326 15,000 -1,059 Descending FlightAware ADS-B
Mon 10:06:52 PM 47.6490 -71.2760 359° North 284 327 14,200 -1,067 Descending FlightAware ADS-B

Login

Don't have an account? Register now (free) for customized features, flight alerts, and more!